sensor_id;sensor_type;location;lat;lon;timestamp;pressure;altitude;pressure_sealevel;temperature;humidity
32873;BME280;19224;52.462;16.898;2023-12-20T00:00:40;99556.92;;;8.22;100.00
32873;BME280;19224;52.462;16.898;2023-12-20T00:03:12;99564.23;;;8.19;100.00
32873;BME280;19224;52.462;16.898;2023-12-20T00:05:42;99549.88;;;8.20;100.00
32873;BME280;19224;52.462;16.898;2023-12-20T00:08:13;99549.11;;;8.16;100.00
32873;BME280;19224;52.462;16.898;2023-12-20T00:10:45;99543.32;;;8.35;100.00
32873;BME280;19224;52.462;16.898;2023-12-20T00:13:15;99545.21;;;8.33;100.00
32873;BME280;19224;52.462;16.898;2023-12-20T00:15:45;99537.28;;;8.30;100.00
32873;BME280;19224;52.462;16.898;2023-12-20T00:18:18;99542.02;;;8.25;100.00
32873;BME280;19224;52.462;16.898;2023-12-20T00:20:53;99539.17;;;8.28;100.00
32873;BME280;19224;52.462;16.898;2023-12-20T00:23:25;99539.08;;;8.40;100.00
32873;BME280;19224;52.462;16.898;2023-12-20T00:25:55;99541.06;;;8.26;100.00
32873;BME280;19224;52.462;16.898;2023-12-20T00:28:27;99531.19;;;8.27;100.00
32873;BME280;19224;52.462;16.898;2023-12-20T00:30:58;99535.16;;;8.28;100.00
32873;BME280;19224;52.462;16.898;2023-12-20T00:33:29;99530.73;;;8.27;100.00
32873;BME280;19224;52.462;16.898;2023-12-20T00:36:00;99529.39;;;8.27;100.00
32873;BME280;19224;52.462;16.898;2023-12-20T00:38:32;99533.99;;;8.34;100.00
32873;BME280;19224;52.462;16.898;2023-12-20T00:41:05;99530.14;;;8.39;100.00
32873;BME280;19224;52.462;16.898;2023-12-20T00:43:37;99531.37;;;8.32;100.00
32873;BME280;19224;52.462;16.898;2023-12-20T00:46:09;99532.50;;;8.18;100.00
32873;BME280;19224;52.462;16.898;2023-12-20T00:48:42;99530.61;;;8.10;100.00
32873;BME280;19224;52.462;16.898;2023-12-20T00:51:14;99547.77;;;8.16;100.00
32873;BME280;19224;52.462;16.898;2023-12-20T00:53:44;99533.23;;;8.12;100.00
32873;BME280;19224;52.462;16.898;2023-12-20T00:56:16;99532.50;;;8.08;100.00
32873;BME280;19224;52.462;16.898;2023-12-20T00:58:46;99528.77;;;8.22;100.00
32873;BME280;19224;52.462;16.898;2023-12-20T01:01:17;99534.19;;;8.21;100.00
32873;BME280;19224;52.462;16.898;2023-12-20T01:03:47;99527.81;;;8.23;100.00
32873;BME280;19224;52.462;16.898;2023-12-20T01:06:19;99526.31;;;8.16;100.00
32873;BME280;19224;52.462;16.898;2023-12-20T01:08:49;99525.38;;;8.17;100.00
32873;BME280;19224;52.462;16.898;2023-12-20T01:11:19;99533.30;;;8.10;100.00
32873;BME280;19224;52.462;16.898;2023-12-20T01:13:49;99510.50;;;8.10;100.00
32873;BME280;19224;52.462;16.898;2023-12-20T01:16:20;99522.66;;;8.09;100.00
32873;BME280;19224;52.462;16.898;2023-12-20T01:18:50;99513.19;;;8.10;100.00
32873;BME280;19224;52.462;16.898;2023-12-20T01:21:20;99518.25;;;8.08;100.00
32873;BME280;19224;52.462;16.898;2023-12-20T01:23:51;99512.09;;;8.06;100.00
32873;BME280;19224;52.462;16.898;2023-12-20T01:26:21;99512.23;;;8.21;100.00
32873;BME280;19224;52.462;16.898;2023-12-20T01:28:51;99511.60;;;8.06;100.00
32873;BME280;19224;52.462;16.898;2023-12-20T01:31:22;99508.58;;;8.04;100.00
32873;BME280;19224;52.462;16.898;2023-12-20T01:33:54;99503.92;;;7.99;100.00
32873;BME280;19224;52.462;16.898;2023-12-20T01:36:30;99506.39;;;8.03;100.00
32873;BME280;19224;52.462;16.898;2023-12-20T01:39:06;99503.89;;;7.90;100.00
32873;BME280;19224;52.462;16.898;2023-12-20T01:41:36;99502.34;;;7.95;100.00
32873;BME280;19224;52.462;16.898;2023-12-20T01:44:12;99499.08;;;8.07;100.00
32873;BME280;19224;52.462;16.898;2023-12-20T01:46:46;99487.95;;;8.06;100.00
32873;BME280;19224;52.462;16.898;2023-12-20T01:49:18;99487.08;;;8.05;100.00
32873;BME280;19224;52.462;16.898;2023-12-20T01:51:50;99479.77;;;7.90;100.00
32873;BME280;19224;52.462;16.898;2023-12-20T01:54:22;99482.45;;;7.90;100.00
32873;BME280;19224;52.462;16.898;2023-12-20T01:56:53;99482.30;;;7.93;100.00
32873;BME280;19224;52.462;16.898;2023-12-20T01:59:23;99477.33;;;7.94;100.00
32873;BME280;19224;52.462;16.898;2023-12-20T02:01:54;99485.31;;;7.96;100.00
32873;BME280;19224;52.462;16.898;2023-12-20T02:04:26;99477.94;;;7.91;100.00
32873;BME280;19224;52.462;16.898;2023-12-20T02:07:00;99475.44;;;7.96;100.00
32873;BME280;19224;52.462;16.898;2023-12-20T02:09:38;99471.02;;;7.95;100.00
32873;BME280;19224;52.462;16.898;2023-12-20T02:12:11;99474.34;;;7.82;100.00
32873;BME280;19224;52.462;16.898;2023-12-20T02:14:44;99470.14;;;7.76;100.00
32873;BME280;19224;52.462;16.898;2023-12-20T02:17:17;99467.70;;;7.90;100.00
32873;BME280;19224;52.462;16.898;2023-12-20T02:19:49;99466.87;;;7.88;100.00
32873;BME280;19224;52.462;16.898;2023-12-20T02:22:22;99460.06;;;7.91;100.00
32873;BME280;19224;52.462;16.898;2023-12-20T02:24:52;99461.80;;;7.92;100.00
32873;BME280;19224;52.462;16.898;2023-12-20T02:27:29;99457.10;;;7.87;100.00
32873;BME280;19224;52.462;16.898;2023-12-20T02:29:59;99454.02;;;7.86;100.00
32873;BME280;19224;52.462;16.898;2023-12-20T02:32:30;99452.99;;;7.80;100.00
32873;BME280;19224;52.462;16.898;2023-12-20T02:35:00;99462.19;;;7.75;100.00
32873;BME280;19224;52.462;16.898;2023-12-20T02:37:31;99451.66;;;7.80;100.00
32873;BME280;19224;52.462;16.898;2023-12-20T02:40:03;99450.40;;;7.87;100.00
32873;BME280;19224;52.462;16.898;2023-12-20T02:42:34;99457.41;;;7.81;100.00
32873;BME280;19224;52.462;16.898;2023-12-20T02:45:05;99444.52;;;7.89;100.00
32873;BME280;19224;52.462;16.898;2023-12-20T02:47:36;99441.56;;;7.85;100.00
32873;BME280;19224;52.462;16.898;2023-12-20T02:50:07;99449.22;;;7.84;100.00
32873;BME280;19224;52.462;16.898;2023-12-20T02:52:37;99446.53;;;7.84;100.00
32873;BME280;19224;52.462;16.898;2023-12-20T02:55:08;99441.48;;;7.78;100.00
32873;BME280;19224;52.462;16.898;2023-12-20T02:57:38;99448.39;;;7.74;100.00
32873;BME280;19224;52.462;16.898;2023-12-20T03:00:13;99454.91;;;7.68;100.00
32873;BME280;19224;52.462;16.898;2023-12-20T03:02:43;99446.74;;;7.61;100.00
32873;BME280;19224;52.462;16.898;2023-12-20T03:05:14;99447.48;;;7.65;100.00
32873;BME280;19224;52.462;16.898;2023-12-20T03:07:44;99442.13;;;7.65;100.00
32873;BME280;19224;52.462;16.898;2023-12-20T03:10:15;99447.35;;;7.58;100.00
32873;BME280;19224;52.462;16.898;2023-12-20T03:12:47;99440.44;;;7.62;100.00
32873;BME280;19224;52.462;16.898;2023-12-20T03:15:17;99441.91;;;7.69;100.00
32873;BME280;19224;52.462;16.898;2023-12-20T03:17:53;99434.53;;;7.64;100.00
32873;BME280;19224;52.462;16.898;2023-12-20T03:20:24;99441.72;;;7.82;100.00
32873;BME280;19224;52.462;16.898;2023-12-20T03:23:04;99420.16;;;7.75;100.00
32873;BME280;19224;52.462;16.898;2023-12-20T03:25:41;99423.33;;;7.56;100.00
32873;BME280;19224;52.462;16.898;2023-12-20T03:28:14;99423.20;;;7.49;100.00
32873;BME280;19224;52.462;16.898;2023-12-20T03:30:43;99420.53;;;7.49;100.00
32873;BME280;19224;52.462;16.898;2023-12-20T03:33:18;99418.24;;;7.50;100.00
32873;BME280;19224;52.462;16.898;2023-12-20T03:35:53;99415.02;;;7.52;100.00
32873;BME280;19224;52.462;16.898;2023-12-20T03:38:30;99421.78;;;7.61;100.00
32873;BME280;19224;52.462;16.898;2023-12-20T03:40:57;99421.27;;;7.71;100.00
32873;BME280;19224;52.462;16.898;2023-12-20T03:43:27;99426.80;;;7.58;100.00
32873;BME280;19224;52.462;16.898;2023-12-20T03:45:57;99425.67;;;7.72;100.00
32873;BME280;19224;52.462;16.898;2023-12-20T03:48:34;99425.55;;;7.65;100.00
32873;BME280;19224;52.462;16.898;2023-12-20T03:51:11;99420.63;;;7.66;100.00
32873;BME280;19224;52.462;16.898;2023-12-20T03:53:45;99422.69;;;7.60;100.00
32873;BME280;19224;52.462;16.898;2023-12-20T03:56:16;99425.28;;;7.71;100.00
32873;BME280;19224;52.462;16.898;2023-12-20T03:58:47;99426.50;;;7.64;100.00
32873;BME280;19224;52.462;16.898;2023-12-20T04:01:17;99414.41;;;7.74;100.00
32873;BME280;19224;52.462;16.898;2023-12-20T04:03:48;99420.95;;;7.77;100.00
32873;BME280;19224;52.462;16.898;2023-12-20T04:06:30;99411.88;;;7.71;100.00
32873;BME280;19224;52.462;16.898;2023-12-20T04:08:58;99415.03;;;7.89;100.00
32873;BME280;19224;52.462;16.898;2023-12-20T04:11:29;99417.42;;;7.77;100.00
32873;BME280;19224;52.462;16.898;2023-12-20T04:13:59;99413.82;;;7.86;100.00
32873;BME280;19224;52.462;16.898;2023-12-20T04:16:29;99422.84;;;7.75;100.00
32873;BME280;19224;52.462;16.898;2023-12-20T04:19:00;99426.47;;;7.74;100.00
32873;BME280;19224;52.462;16.898;2023-12-20T04:21:30;99410.69;;;7.87;100.00
32873;BME280;19224;52.462;16.898;2023-12-20T04:24:00;99423.70;;;7.67;100.00
32873;BME280;19224;52.462;16.898;2023-12-20T04:26:31;99414.95;;;7.72;100.00
32873;BME280;19224;52.462;16.898;2023-12-20T04:29:01;99414.20;;;7.79;100.00
32873;BME280;19224;52.462;16.898;2023-12-20T04:31:34;99405.52;;;7.74;100.00
32873;BME280;19224;52.462;16.898;2023-12-20T04:34:04;99405.97;;;7.73;100.00
32873;BME280;19224;52.462;16.898;2023-12-20T04:36:34;99406.72;;;7.85;100.00
32873;BME280;19224;52.462;16.898;2023-12-20T04:39:04;99413.09;;;7.83;100.00
32873;BME280;19224;52.462;16.898;2023-12-20T04:41:42;99398.84;;;7.82;100.00
32873;BME280;19224;52.462;16.898;2023-12-20T04:44:12;99404.53;;;7.85;100.00
32873;BME280;19224;52.462;16.898;2023-12-20T04:46:43;99399.21;;;7.75;100.00
32873;BME280;19224;52.462;16.898;2023-12-20T04:49:13;99401.56;;;7.72;100.00
32873;BME280;19224;52.462;16.898;2023-12-20T04:51:43;99399.27;;;7.73;100.00
32873;BME280;19224;52.462;16.898;2023-12-20T04:54:17;99412.45;;;7.78;100.00
32873;BME280;19224;52.462;16.898;2023-12-20T04:56:47;99387.94;;;7.77;100.00
32873;BME280;19224;52.462;16.898;2023-12-20T04:59:23;99398.45;;;7.81;100.00
32873;BME280;19224;52.462;16.898;2023-12-20T05:01:58;99400.67;;;7.72;100.00
32873;BME280;19224;52.462;16.898;2023-12-20T05:04:30;99412.67;;;7.73;100.00
32873;BME280;19224;52.462;16.898;2023-12-20T05:07:00;99411.18;;;7.76;100.00
32873;BME280;19224;52.462;16.898;2023-12-20T05:09:32;99410.88;;;7.74;100.00
32873;BME280;19224;52.462;16.898;2023-12-20T05:12:04;99407.07;;;7.69;100.00
32873;BME280;19224;52.462;16.898;2023-12-20T05:14:34;99403.84;;;7.71;100.00
32873;BME280;19224;52.462;16.898;2023-12-20T05:17:05;99402.80;;;7.84;100.00
32873;BME280;19224;52.462;16.898;2023-12-20T05:19:35;99414.22;;;7.87;100.00
32873;BME280;19224;52.462;16.898;2023-12-20T05:22:09;99423.57;;;7.79;100.00
32873;BME280;19224;52.462;16.898;2023-12-20T05:24:41;99420.50;;;7.78;100.00
32873;BME280;19224;52.462;16.898;2023-12-20T05:27:11;99413.98;;;7.83;100.00
32873;BME280;19224;52.462;16.898;2023-12-20T05:29:42;99407.06;;;7.88;100.00
32873;BME280;19224;52.462;16.898;2023-12-20T05:32:12;99413.10;;;8.01;100.00
32873;BME280;19224;52.462;16.898;2023-12-20T05:34:42;99412.55;;;8.03;100.00
32873;BME280;19224;52.462;16.898;2023-12-20T05:37:12;99417.25;;;7.98;100.00
32873;BME280;19224;52.462;16.898;2023-12-20T05:39:42;99409.91;;;7.93;100.00
32873;BME280;19224;52.462;16.898;2023-12-20T05:42:13;99405.23;;;7.88;100.00
32873;BME280;19224;52.462;16.898;2023-12-20T05:44:43;99403.26;;;7.83;100.00
32873;BME280;19224;52.462;16.898;2023-12-20T05:47:13;99393.59;;;7.89;100.00
32873;BME280;19224;52.462;16.898;2023-12-20T05:49:45;99399.74;;;7.91;100.00
32873;BME280;19224;52.462;16.898;2023-12-20T05:52:16;99401.83;;;8.03;100.00
32873;BME280;19224;52.462;16.898;2023-12-20T05:54:46;99410.25;;;7.96;100.00
32873;BME280;19224;52.462;16.898;2023-12-20T05:57:16;99401.38;;;7.94;100.00
32873;BME280;19224;52.462;16.898;2023-12-20T05:59:46;99408.85;;;7.87;100.00
32873;BME280;19224;52.462;16.898;2023-12-20T06:02:17;99408.18;;;7.92;100.00
32873;BME280;19224;52.462;16.898;2023-12-20T06:04:51;99402.16;;;7.87;100.00
32873;BME280;19224;52.462;16.898;2023-12-20T06:07:22;99398.69;;;7.85;100.00
32873;BME280;19224;52.462;16.898;2023-12-20T06:09:52;99398.84;;;7.82;100.00
32873;BME280;19224;52.462;16.898;2023-12-20T06:12:22;99399.13;;;7.95;100.00
32873;BME280;19224;52.462;16.898;2023-12-20T06:14:52;99401.64;;;7.89;100.00
32873;BME280;19224;52.462;16.898;2023-12-20T06:17:23;99398.58;;;7.97;100.00
32873;BME280;19224;52.462;16.898;2023-12-20T06:19:53;99393.00;;;8.01;100.00
32873;BME280;19224;52.462;16.898;2023-12-20T06:22:23;99394.16;;;7.96;100.00
32873;BME280;19224;52.462;16.898;2023-12-20T06:24:53;99395.33;;;7.90;100.00
32873;BME280;19224;52.462;16.898;2023-12-20T06:27:24;99393.98;;;7.90;100.00
32873;BME280;19224;52.462;16.898;2023-12-20T06:29:54;99402.16;;;7.87;100.00
32873;BME280;19224;52.462;16.898;2023-12-20T06:32:25;99400.81;;;7.87;100.00
32873;BME280;19224;52.462;16.898;2023-12-20T06:34:55;99410.94;;;7.72;100.00
32873;BME280;19224;52.462;16.898;2023-12-20T06:37:25;99408.67;;;7.82;100.00
32873;BME280;19224;52.462;16.898;2023-12-20T06:39:55;99403.96;;;7.78;100.00
32873;BME280;19224;52.462;16.898;2023-12-20T06:42:26;99407.22;;;7.85;100.00
32873;BME280;19224;52.462;16.898;2023-12-20T06:44:57;99408.66;;;7.73;100.00
32873;BME280;19224;52.462;16.898;2023-12-20T06:47:27;99416.52;;;7.68;100.00
32873;BME280;19224;52.462;16.898;2023-12-20T06:49:59;99416.84;;;7.70;100.00
32873;BME280;19224;52.462;16.898;2023-12-20T06:52:42;99431.22;;;7.59;100.00
32873;BME280;19224;52.462;16.898;2023-12-20T06:55:10;99420.34;;;7.62;100.00
32873;BME280;19224;52.462;16.898;2023-12-20T06:57:40;99419.01;;;7.62;100.00
32873;BME280;19224;52.462;16.898;2023-12-20T07:00:13;99418.09;;;7.53;100.00
32873;BME280;19224;52.462;16.898;2023-12-20T07:02:44;99423.20;;;7.49;100.00
32873;BME280;19224;52.462;16.898;2023-12-20T07:05:20;99436.84;;;7.53;100.00
32873;BME280;19224;52.462;16.898;2023-12-20T07:07:51;99438.55;;;7.46;100.00
32873;BME280;19224;52.462;16.898;2023-12-20T07:10:25;99443.55;;;7.53;100.00
32873;BME280;19224;52.462;16.898;2023-12-20T07:12:55;99437.39;;;7.51;100.00
32873;BME280;19224;52.462;16.898;2023-12-20T07:15:27;99438.73;;;7.51;100.00
32873;BME280;19224;52.462;16.898;2023-12-20T07:18:00;99446.52;;;7.47;100.00
32873;BME280;19224;52.462;16.898;2023-12-20T07:20:33;99462.45;;;7.50;100.00
32873;BME280;19224;52.462;16.898;2023-12-20T07:23:09;99460.30;;;7.58;100.00
32873;BME280;19224;52.462;16.898;2023-12-20T07:25:40;99468.23;;;7.60;100.00
32873;BME280;19224;52.462;16.898;2023-12-20T07:28:11;99466.05;;;7.59;100.00
32873;BME280;19224;52.462;16.898;2023-12-20T07:30:41;99466.08;;;7.68;100.00
32873;BME280;19224;52.462;16.898;2023-12-20T07:33:11;99464.84;;;7.66;100.00
32873;BME280;19224;52.462;16.898;2023-12-20T07:35:42;99463.62;;;7.63;100.00
32873;BME280;19224;52.462;16.898;2023-12-20T07:38:13;99469.95;;;7.71;100.00
32873;BME280;19224;52.462;16.898;2023-12-20T07:40:44;99468.61;;;7.71;100.00
32873;BME280;19224;52.462;16.898;2023-12-20T07:43:14;99470.92;;;7.60;100.00
32873;BME280;19224;52.462;16.898;2023-12-20T07:45:45;99463.97;;;7.56;100.00
32873;BME280;19224;52.462;16.898;2023-12-20T07:48:15;99472.58;;;7.72;100.00
32873;BME280;19224;52.462;16.898;2023-12-20T07:50:46;99463.98;;;7.74;100.00
32873;BME280;19224;52.462;16.898;2023-12-20T07:53:19;99458.05;;;7.86;100.00
32873;BME280;19224;52.462;16.898;2023-12-20T07:55:51;99459.94;;;7.84;100.00
32873;BME280;19224;52.462;16.898;2023-12-20T07:58:23;99453.05;;;7.79;100.00
32873;BME280;19224;52.462;16.898;2023-12-20T08:00:54;99456.25;;;7.68;100.00
32873;BME280;19224;52.462;16.898;2023-12-20T08:03:24;99452.48;;;7.72;100.00
32873;BME280;19224;52.462;16.898;2023-12-20T08:05:54;99451.38;;;7.76;100.00
32873;BME280;19224;52.462;16.898;2023-12-20T08:08:25;99453.36;;;7.73;100.00
32873;BME280;19224;52.462;16.898;2023-12-20T08:10:56;99448.21;;;7.68;100.00
32873;BME280;19224;52.462;16.898;2023-12-20T08:13:30;99442.33;;;7.60;100.00
32873;BME280;19224;52.462;16.898;2023-12-20T08:16:04;99444.22;;;7.58;100.00
32873;BME280;19224;52.462;16.898;2023-12-20T08:18:35;99439.86;;;7.56;100.00
32873;BME280;19224;52.462;16.898;2023-12-20T08:21:05;99435.11;;;7.52;100.00
32873;BME280;19224;52.462;16.898;2023-12-20T08:23:39;99432.31;;;7.55;100.00
32873;BME280;19224;52.462;16.898;2023-12-20T08:26:14;99438.95;;;7.37;100.00
32873;BME280;19224;52.462;16.898;2023-12-20T08:28:44;99441.95;;;7.49;100.00
32873;BME280;19224;52.462;16.898;2023-12-20T08:31:16;99444.39;;;7.45;100.00
32873;BME280;19224;52.462;16.898;2023-12-20T08:33:48;99442.97;;;7.37;100.00
32873;BME280;19224;52.462;16.898;2023-12-20T08:36:20;99449.41;;;7.43;100.00
32873;BME280;19224;52.462;16.898;2023-12-20T08:38:55;99444.06;;;7.33;100.00
32873;BME280;19224;52.462;16.898;2023-12-20T08:41:25;99447.34;;;7.29;100.00
32873;BME280;19224;52.462;16.898;2023-12-20T08:43:55;99456.17;;;7.31;100.00
32873;BME280;19224;52.462;16.898;2023-12-20T08:46:26;99449.77;;;7.25;100.00
32873;BME280;19224;52.462;16.898;2023-12-20T08:48:56;99447.29;;;7.31;100.00
32873;BME280;19224;52.462;16.898;2023-12-20T08:51:26;99446.14;;;7.36;100.00
32873;BME280;19224;52.462;16.898;2023-12-20T08:53:56;99438.38;;;7.30;100.00
32873;BME280;19224;52.462;16.898;2023-12-20T08:56:26;99441.58;;;7.38;100.00
32873;BME280;19224;52.462;16.898;2023-12-20T08:58:56;99446.34;;;7.32;100.00
32873;BME280;19224;52.462;16.898;2023-12-20T09:01:28;99451.34;;;7.39;100.00
32873;BME280;19224;52.462;16.898;2023-12-20T09:04:07;99456.27;;;7.30;100.00
32873;BME280;19224;52.462;16.898;2023-12-20T09:06:38;99452.44;;;7.35;100.00
32873;BME280;19224;52.462;16.898;2023-12-20T09:09:08;99442.73;;;7.23;100.00
32873;BME280;19224;52.462;16.898;2023-12-20T09:11:40;99430.55;;;7.16;100.00
32873;BME280;19224;52.462;16.898;2023-12-20T09:14:11;99429.95;;;7.19;100.00
32873;BME280;19224;52.462;16.898;2023-12-20T09:16:41;99431.84;;;7.17;100.00
32873;BME280;19224;52.462;16.898;2023-12-20T09:19:12;99425.54;;;7.18;100.00
32873;BME280;19224;52.462;16.898;2023-12-20T09:21:43;99430.55;;;7.26;100.00
32873;BME280;19224;52.462;16.898;2023-12-20T09:24:13;99424.63;;;7.38;100.00
32873;BME280;19224;52.462;16.898;2023-12-20T09:26:44;99427.47;;;7.53;100.00
32873;BME280;19224;52.462;16.898;2023-12-20T09:29:14;99426.38;;;7.67;100.00
32873;BME280;19224;52.462;16.898;2023-12-20T09:31:50;99419.18;;;7.86;100.00
32873;BME280;19224;52.462;16.898;2023-12-20T09:34:17;99425.39;;;7.97;100.00
32873;BME280;19224;52.462;16.898;2023-12-20T09:36:57;99421.38;;;8.05;100.00
32873;BME280;19224;52.462;16.898;2023-12-20T09:39:29;99426.97;;;8.19;100.00
32873;BME280;19224;52.462;16.898;2023-12-20T09:42:07;99422.73;;;8.14;100.00
32873;BME280;19224;52.462;16.898;2023-12-20T09:44:39;99424.85;;;7.80;100.00
32873;BME280;19224;52.462;16.898;2023-12-20T09:47:11;99432.62;;;7.76;100.00
32873;BME280;19224;52.462;16.898;2023-12-20T09:49:46;99427.02;;;7.72;100.00
32873;BME280;19224;52.462;16.898;2023-12-20T09:52:25;99421.63;;;7.64;100.00
32873;BME280;19224;52.462;16.898;2023-12-20T09:54:57;99412.98;;;7.67;100.00
32873;BME280;19224;52.462;16.898;2023-12-20T09:57:30;99403.39;;;7.43;100.00
32873;BME280;19224;52.462;16.898;2023-12-20T10:00:02;99423.75;;;7.47;100.00
32873;BME280;19224;52.462;16.898;2023-12-20T10:02:34;99400.59;;;7.46;100.00
32873;BME280;19224;52.462;16.898;2023-12-20T10:05:09;99390.61;;;7.50;100.00
32873;BME280;19224;52.462;16.898;2023-12-20T10:07:40;99396.81;;;7.50;100.00
32873;BME280;19224;52.462;16.898;2023-12-20T10:10:18;99386.22;;;7.57;100.00
32873;BME280;19224;52.462;16.898;2023-12-20T10:13:03;99379.37;;;7.60;100.00
32873;BME280;19224;52.462;16.898;2023-12-20T10:15:41;99368.98;;;7.63;100.00
32873;BME280;19224;52.462;16.898;2023-12-20T10:18:14;99370.09;;;7.49;100.00
32873;BME280;19224;52.462;16.898;2023-12-20T10:20:46;99363.88;;;7.48;100.00
32873;BME280;19224;52.462;16.898;2023-12-20T10:23:16;99362.30;;;7.44;100.00
32873;BME280;19224;52.462;16.898;2023-12-20T10:25:59;99360.89;;;7.36;100.00
32873;BME280;19224;52.462;16.898;2023-12-20T10:28:35;99357.21;;;7.38;100.00
32873;BME280;19224;52.462;16.898;2023-12-20T10:31:06;99353.95;;;7.50;100.00
32873;BME280;19224;52.462;16.898;2023-12-20T10:33:36;99358.34;;;7.43;100.00
32873;BME280;19224;52.462;16.898;2023-12-20T10:36:10;99361.86;;;7.43;100.00
32873;BME280;19224;52.462;16.898;2023-12-20T10:38:56;99349.62;;;7.38;100.00
32873;BME280;19224;52.462;16.898;2023-12-20T10:41:35;99344.06;;;7.42;100.00
32873;BME280;19224;52.462;16.898;2023-12-20T10:44:11;99349.33;;;7.35;100.00
32873;BME280;19224;52.462;16.898;2023-12-20T10:46:42;99345.44;;;7.32;100.00
32873;BME280;19224;52.462;16.898;2023-12-20T10:49:18;99340.98;;;7.41;100.00
32873;BME280;19224;52.462;16.898;2023-12-20T10:51:49;99347.80;;;7.48;100.00
32873;BME280;19224;52.462;16.898;2023-12-20T10:54:26;99339.09;;;7.43;100.00
32873;BME280;19224;52.462;16.898;2023-12-20T10:56:55;99344.80;;;7.46;100.00
32873;BME280;19224;52.462;16.898;2023-12-20T10:59:28;99332.58;;;7.49;100.00
32873;BME280;19224;52.462;16.898;2023-12-20T11:02:00;99334.65;;;7.52;100.00
32873;BME280;19224;52.462;16.898;2023-12-20T11:07:33;99328.50;;;7.50;100.00
32873;BME280;19224;52.462;16.898;2023-12-20T11:10:19;99313.02;;;7.38;100.00
32873;BME280;19224;52.462;16.898;2023-12-20T11:15:27;99307.51;;;7.41;100.00
32873;BME280;19224;52.462;16.898;2023-12-20T11:17:59;99307.48;;;7.33;100.00
32873;BME280;19224;52.462;16.898;2023-12-20T11:20:41;99296.95;;;7.38;100.00
32873;BME280;19224;52.462;16.898;2023-12-20T11:23:12;99284.70;;;7.51;100.00
32873;BME280;19224;52.462;16.898;2023-12-20T11:25:59;99293.23;;;7.59;100.00
32873;BME280;19224;52.462;16.898;2023-12-20T11:28:30;99285.59;;;7.60;100.00
32873;BME280;19224;52.462;16.898;2023-12-20T11:31:05;99279.34;;;7.51;100.00
32873;BME280;19224;52.462;16.898;2023-12-20T11:33:41;99280.00;;;7.38;100.00
32873;BME280;19224;52.462;16.898;2023-12-20T11:36:25;99272.84;;;7.38;100.00
32873;BME280;19224;52.462;16.898;2023-12-20T11:38:57;99259.13;;;7.36;100.00
32873;BME280;19224;52.462;16.898;2023-12-20T11:41:29;99260.08;;;7.43;100.00
32873;BME280;19224;52.462;16.898;2023-12-20T11:43:59;99268.61;;;7.43;100.00
32873;BME280;19224;52.462;16.898;2023-12-20T11:46:31;99251.19;;;7.34;100.00
32873;BME280;19224;52.462;16.898;2023-12-20T11:49:02;99255.98;;;7.36;100.00
32873;BME280;19224;52.462;16.898;2023-12-20T11:51:32;99261.34;;;7.36;100.00
32873;BME280;19224;52.462;16.898;2023-12-20T11:54:03;99251.25;;;7.33;100.00
32873;BME280;19224;52.462;16.898;2023-12-20T11:56:33;99258.27;;;7.35;100.00
32873;BME280;19224;52.462;16.898;2023-12-20T11:59:04;99254.20;;;7.27;100.00
32873;BME280;19224;52.462;16.898;2023-12-20T12:01:34;99247.25;;;7.14;100.00
32873;BME280;19224;52.462;16.898;2023-12-20T12:04:06;99248.31;;;7.10;100.00
32873;BME280;19224;52.462;16.898;2023-12-20T12:06:36;99242.98;;;7.29;100.00
32873;BME280;19224;52.462;16.898;2023-12-20T12:09:06;99230.61;;;7.35;100.00
32873;BME280;19224;52.462;16.898;2023-12-20T12:11:37;99222.12;;;7.35;100.00
32873;BME280;19224;52.462;16.898;2023-12-20T12:14:08;99224.47;;;7.33;100.00
32873;BME280;19224;52.462;16.898;2023-12-20T12:16:38;99213.53;;;7.37;100.00
32873;BME280;19224;52.462;16.898;2023-12-20T12:19:24;99225.42;;;7.40;100.00
32873;BME280;19224;52.462;16.898;2023-12-20T12:22:09;99217.58;;;7.19;100.00
32873;BME280;19224;52.462;16.898;2023-12-20T12:24:42;99219.30;;;7.11;100.00
32873;BME280;19224;52.462;16.898;2023-12-20T12:27:14;99208.04;;;7.13;100.00
32873;BME280;19224;52.462;16.898;2023-12-20T12:30:03;99199.45;;;7.15;100.00
32873;BME280;19224;52.462;16.898;2023-12-20T12:32:36;99195.45;;;7.24;100.00
32873;BME280;19224;52.462;16.898;2023-12-20T12:35:08;99188.18;;;7.09;100.00
32873;BME280;19224;52.462;16.898;2023-12-20T12:37:40;99186.36;;;7.09;100.00
32873;BME280;19224;52.462;16.898;2023-12-20T12:40:14;99181.31;;;7.03;100.00
32873;BME280;19224;52.462;16.898;2023-12-20T12:42:45;99178.03;;;7.07;100.00
32873;BME280;19224;52.462;16.898;2023-12-20T12:45:17;99180.48;;;7.11;100.00
32873;BME280;19224;52.462;16.898;2023-12-20T12:47:47;99171.63;;;7.09;100.00
32873;BME280;19224;52.462;16.898;2023-12-20T12:50:17;99169.51;;;7.07;100.00
32873;BME280;19224;52.462;16.898;2023-12-20T12:52:48;99175.42;;;7.14;100.00
32873;BME280;19224;52.462;16.898;2023-12-20T12:55:18;99158.75;;;7.17;100.00
32873;BME280;19224;52.462;16.898;2023-12-20T12:57:49;99168.83;;;7.12;100.00
32873;BME280;19224;52.462;16.898;2023-12-20T13:00:20;99175.25;;;7.08;100.00
32873;BME280;19224;52.462;16.898;2023-12-20T13:02:50;99173.96;;;7.17;100.00
32873;BME280;19224;52.462;16.898;2023-12-20T13:05:21;99172.46;;;7.20;100.00
32873;BME280;19224;52.462;16.898;2023-12-20T13:07:51;99174.02;;;7.15;100.00
32873;BME280;19224;52.462;16.898;2023-12-20T13:10:21;99182.52;;;7.15;100.00
32873;BME280;19224;52.462;16.898;2023-12-20T13:12:51;99161.74;;;7.11;100.00
32873;BME280;19224;52.462;16.898;2023-12-20T13:15:22;99150.61;;;7.10;100.00
32873;BME280;19224;52.462;16.898;2023-12-20T13:17:52;99150.16;;;7.19;100.00
32873;BME280;19224;52.462;16.898;2023-12-20T13:20:22;99148.27;;;7.13;100.00